PWSweather.com
Personal Weather Stations
Station Observations
CW4114
Near Downtown, Rogers City, MI 49779

Near DowntownRogers City, MI 49779

Lat: 45.417443, Lon: -83.810642

Elevation: 605

Station Type: Davis Vantage Pro2 w/Solar

Latest ConditionsUpdated 5:31:27 PM EST Wednesday, Mar 4, 2015
Currently Today's Max Today's Min Today's Average
Temperature 12.4°F-10.9°C 25.3°F-3.7°C 12.2°F-11.0°C 18.5°F-7.5°C
Dew Point 6.6°F-14.1°C 22.1°F-5.5°C 5.9°F-14.5°C 11.9°F-11.2°C
Winds 6.0 mph N9.7 kmh N 8.9 mph W14.3 kmh W - 5.6 mph 9.0 kmh
Wind Gusts 13.0 mph20.9 kmh 19.9 mph32.0 kmh - -
Humidity 77% 88% 59% 75%
Pressure 30.05 in1017.6 mb 30.05 in1017.6 mb 29.67 in1004.7 mb -
Hour Temp Dew Point Humidity Winds Wind Gusts Pressure Precip Precip Rate Daily Precip Total
05:31 PM 12.4°F-10.9°C 6.6°F-14.1°C 77% 6.0 mph N9.7 kmh N 13.0 mph20.9 kmh 30.05 in1017.6 mb 0.00 in0.0 mm 0.00 in/hr0.0 mm/hr 0.00 in0.0 mm
05:26 PM 12.4°F-10.9°C 6.3°F-14.3°C 76% 6.0 mph NW9.7 kmh NW 14.1 mph22.7 kmh 30.05 in1017.6 mb 0.00 in0.0 mm 0.00 in/hr0.0 mm/hr 0.00 in0.0 mm
05:21 PM 12.4°F-10.9°C 6.6°F-14.1°C 77% 4.9 mph N7.9 kmh N 13.0 mph20.9 kmh 30.05 in1017.6 mb 0.00 in0.0 mm 0.00 in/hr0.0 mm/hr 0.00 in0.0 mm
05:16 PM 12.4°F-10.9°C 7.2°F-13.8°C 79% 4.9 mph NW7.9 kmh NW 13.0 mph20.9 kmh 30.05 in1017.6 mb 0.00 in0.0 mm 0.00 in/hr0.0 mm/hr 0.00 in0.0 mm
05:11 PM 12.4°F-10.9°C 7.2°F-13.8°C 79% 4.9 mph NW7.9 kmh NW 12.1 mph19.5 kmh 30.05 in1017.6 mb 0.00 in0.0 mm 0.00 in/hr0.0 mm/hr 0.00 in0.0 mm
05:06 PM 12.2°F-11.0°C 7.5°F-13.6°C 81% 6.0 mph NW9.7 kmh NW 15.0 mph24.1 kmh 30.05 in1017.6 mb 0.00 in0.0 mm 0.00 in/hr0.0 mm/hr 0.00 in0.0 mm
05:01 PM 12.6°F-10.8°C 7.9°F-13.4°C 81% 6.0 mph NW9.7 kmh NW 14.1 mph22.7 kmh 30.05 in1017.6 mb 0.00 in0.0 mm 0.00 in/hr0.0 mm/hr 0.00 in0.0 mm
04:56 PM 12.9°F-10.6°C 8.2°F-13.2°C 81% 6.0 mph NW9.7 kmh NW 12.1 mph19.5 kmh 30.04 in1017.3 mb 0.00 in0.0 mm 0.00 in/hr0.0 mm/hr 0.00 in0.0 mm
04:51 PM 13.1°F-10.5°C 7.9°F-13.4°C 79% 6.9 mph N11.1 kmh N 16.1 mph25.9 kmh 30.04 in1017.3 mb 0.00 in0.0 mm 0.00 in/hr0.0 mm/hr 0.00 in0.0 mm
04:46 PM 13.1°F-10.5°C 7.5°F-13.6°C 78% 6.0 mph NW9.7 kmh NW 17.0 mph27.4 kmh 30.03 in1016.9 mb 0.00 in0.0 mm 0.00 in/hr0.0 mm/hr 0.00 in0.0 mm
04:41 PM 13.5°F-10.3°C 7.9°F-13.4°C 78% 4.9 mph NW7.9 kmh NW 12.1 mph19.5 kmh 30.03 in1016.9 mb 0.00 in0.0 mm 0.00 in/hr0.0 mm/hr 0.00 in0.0 mm
04:36 PM 13.6°F-10.2°C 8.4°F-13.1°C 79% 4.0 mph NW6.4 kmh NW 15.0 mph24.1 kmh 30.03 in1016.9 mb 0.00 in0.0 mm 0.00 in/hr0.0 mm/hr 0.00 in0.0 mm
04:31 PM 13.8°F-10.1°C 8.2°F-13.2°C 78% 4.9 mph N7.9 kmh N 11.0 mph17.7 kmh 30.03 in1016.9 mb 0.00 in0.0 mm 0.00 in/hr0.0 mm/hr 0.00 in0.0 mm
04:26 PM 14.0°F-10.0°C 7.9°F-13.4°C 76% 6.0 mph NW9.7 kmh NW 15.0 mph24.1 kmh 30.03 in1016.9 mb 0.00 in0.0 mm 0.00 in/hr0.0 mm/hr 0.00 in0.0 mm
04:21 PM 14.5°F-9.7°C 7.5°F-13.6°C 73% 4.0 mph N6.4 kmh N 14.1 mph22.7 kmh 30.03 in1016.9 mb 0.00 in0.0 mm 0.00 in/hr0.0 mm/hr 0.00 in0.0 mm
04:16 PM 15.3°F-9.3°C 7.2°F-13.8°C 70% 4.0 mph NNW6.4 kmh NNW 10.1 mph16.3 kmh 30.02 in1016.6 mb 0.00 in0.0 mm 0.00 in/hr0.0 mm/hr 0.00 in0.0 mm
04:11 PM 15.4°F-9.2°C 6.8°F-14.0°C 68% 6.0 mph N9.7 kmh N 13.0 mph20.9 kmh 30.02 in1016.6 mb 0.00 in0.0 mm 0.00 in/hr0.0 mm/hr 0.00 in0.0 mm
04:06 PM 15.6°F-9.1°C 6.6°F-14.1°C 67% 6.0 mph NW9.7 kmh NW 12.1 mph19.5 kmh 30.02 in1016.6 mb 0.00 in0.0 mm 0.00 in/hr0.0 mm/hr 0.00 in0.0 mm
04:01 PM 16.2°F-8.8°C 6.8°F-14.0°C 66% 6.9 mph WNW11.1 kmh WNW 17.0 mph27.4 kmh 30.02 in1016.6 mb 0.00 in0.0 mm 0.00 in/hr0.0 mm/hr 0.00 in0.0 mm
03:56 PM 16.3°F-8.7°C 6.3°F-14.3°C 64% 6.9 mph W11.1 kmh W 15.0 mph24.1 kmh 30.02 in1016.6 mb 0.00 in0.0 mm 0.00 in/hr0.0 mm/hr 0.00 in0.0 mm
03:51 PM 16.3°F-8.7°C 7.0°F-13.9°C 66% 6.0 mph W9.7 kmh W 14.1 mph22.7 kmh 30.02 in1016.6 mb 0.00 in0.0 mm 0.00 in/hr0.0 mm/hr 0.00 in0.0 mm
03:46 PM 16.2°F-8.8°C 6.1°F-14.4°C 64% 6.9 mph NNW11.1 kmh NNW 14.1 mph22.7 kmh 30.01 in1016.3 mb 0.00 in0.0 mm 0.00 in/hr0.0 mm/hr 0.00 in0.0 mm
03:41 PM 17.1°F-8.3°C 6.3°F-14.3°C 62% 6.0 mph WNW9.7 kmh WNW 12.1 mph19.5 kmh 30.01 in1016.3 mb 0.00 in0.0 mm 0.00 in/hr0.0 mm/hr 0.00 in0.0 mm
03:36 PM 17.2°F-8.2°C 6.8°F-14.0°C 63% 4.9 mph WNW7.9 kmh WNW 14.1 mph22.7 kmh 30.01 in1016.3 mb 0.00 in0.0 mm 0.00 in/hr0.0 mm/hr 0.00 in0.0 mm
03:31 PM 17.6°F-8.0°C 6.1°F-14.4°C 60% 6.0 mph NW9.7 kmh NW 14.1 mph22.7 kmh 30.01 in1016.3 mb 0.00 in0.0 mm 0.00 in/hr0.0 mm/hr 0.00 in0.0 mm
03:26 PM 18.1°F-7.7°C 6.6°F-14.1°C 60% 6.0 mph NW9.7 kmh NW 13.0 mph20.9 kmh 30.00 in1015.9 mb 0.00 in0.0 mm 0.00 in/hr0.0 mm/hr 0.00 in0.0 mm
03:21 PM 18.7°F-7.4°C 6.8°F-14.0°C 59% 6.0 mph WNW9.7 kmh WNW 15.0 mph24.1 kmh 30.00 in1015.9 mb 0.00 in0.0 mm 0.00 in/hr0.0 mm/hr 0.00 in0.0 mm
03:16 PM 18.3°F-7.6°C 7.2°F-13.8°C 61% 6.0 mph NW9.7 kmh NW 16.0 mph25.7 kmh 30.00 in1015.9 mb 0.00 in0.0 mm 0.00 in/hr0.0 mm/hr 0.00 in0.0 mm
03:11 PM 17.8°F-7.9°C 6.6°F-14.1°C 61% 6.9 mph WSW11.1 kmh WSW 13.0 mph20.9 kmh 30.00 in1015.9 mb 0.00 in0.0 mm 0.00 in/hr0.0 mm/hr 0.00 in0.0 mm
03:06 PM 17.1°F-8.3°C 5.9°F-14.5°C 61% 6.9 mph NW11.1 kmh NW 15.0 mph24.1 kmh 29.99 in1015.6 mb 0.00 in0.0 mm 0.00 in/hr0.0 mm/hr 0.00 in0.0 mm
03:01 PM 17.4°F-8.1°C 7.7°F-13.5°C 65% 6.9 mph NW11.1 kmh NW 17.9 mph28.8 kmh 29.99 in1015.6 mb 0.00 in0.0 mm 0.00 in/hr0.0 mm/hr 0.00 in0.0 mm
02:56 PM 17.4°F-8.1°C 7.0°F-13.9°C 63% 6.0 mph NW9.7 kmh NW 13.0 mph20.9 kmh 29.99 in1015.6 mb 0.00 in0.0 mm 0.00 in/hr0.0 mm/hr 0.00 in0.0 mm
02:51 PM 17.4°F-8.1°C 7.3°F-13.7°C 64% 6.0 mph NW9.7 kmh NW 15.0 mph24.1 kmh 30.00 in1015.9 mb 0.00 in0.0 mm 0.00 in/hr0.0 mm/hr 0.00 in0.0 mm
02:46 PM 17.6°F-8.0°C 7.9°F-13.4°C 65% 6.9 mph NW11.1 kmh NW 14.1 mph22.7 kmh 29.98 in1015.2 mb 0.00 in0.0 mm 0.00 in/hr0.0 mm/hr 0.00 in0.0 mm
02:41 PM 17.4°F-8.1°C 8.1°F-13.3°C 66% 6.9 mph WSW11.1 kmh WSW 13.0 mph20.9 kmh 29.99 in1015.6 mb 0.00 in0.0 mm 0.00 in/hr0.0 mm/hr 0.00 in0.0 mm
02:36 PM 17.8°F-7.9°C 8.1°F-13.3°C 65% 8.1 mph W13.0 kmh W 16.1 mph25.9 kmh 29.98 in1015.2 mb 0.00 in0.0 mm 0.00 in/hr0.0 mm/hr 0.00 in0.0 mm
02:31 PM 18.9°F-7.3°C 9.3°F-12.6°C 66% 8.9 mph W14.3 kmh W 16.1 mph25.9 kmh 29.98 in1015.2 mb 0.00 in0.0 mm 0.00 in/hr0.0 mm/hr 0.00 in0.0 mm
02:26 PM 18.9°F-7.3°C 9.0°F-12.8°C 65% 8.9 mph WSW14.3 kmh WSW 19.0 mph30.6 kmh 29.98 in1015.2 mb 0.00 in0.0 mm 0.00 in/hr0.0 mm/hr 0.00 in0.0 mm
02:21 PM 18.1°F-7.7°C 8.1°F-13.3°C 64% 8.1 mph W13.0 kmh W 17.9 mph28.8 kmh 29.98 in1015.2 mb 0.00 in0.0 mm 0.00 in/hr0.0 mm/hr 0.00 in0.0 mm
02:16 PM 18.5°F-7.5°C 8.4°F-13.1°C 64% 6.9 mph WNW11.1 kmh WNW 19.0 mph30.6 kmh 29.98 in1015.2 mb 0.00 in0.0 mm 0.00 in/hr0.0 mm/hr 0.00 in0.0 mm
02:11 PM 18.9°F-7.3°C 9.3°F-12.6°C 66% 6.9 mph NW11.1 kmh NW 13.0 mph20.9 kmh 29.98 in1015.2 mb 0.00 in0.0 mm 0.00 in/hr0.0 mm/hr 0.00 in0.0 mm
02:06 PM 17.4°F-8.1°C 8.1°F-13.3°C 66% 6.9 mph NW11.1 kmh NW 16.1 mph25.9 kmh 29.98 in1015.2 mb 0.00 in0.0 mm 0.00 in/hr0.0 mm/hr 0.00 in0.0 mm
02:01 PM 18.1°F-7.7°C 9.3°F-12.6°C 68% 8.1 mph NW13.0 kmh NW 16.1 mph25.9 kmh 29.98 in1015.2 mb 0.00 in0.0 mm 0.00 in/hr0.0 mm/hr 0.00 in0.0 mm
01:56 PM 17.8°F-7.9°C 9.0°F-12.8°C 68% 6.9 mph NW11.1 kmh NW 17.0 mph27.4 kmh 29.98 in1015.2 mb 0.00 in0.0 mm 0.00 in/hr0.0 mm/hr 0.00 in0.0 mm
01:51 PM 17.8°F-7.9°C 8.6°F-13.0°C 67% 6.0 mph W9.7 kmh W 12.1 mph19.5 kmh 29.98 in1015.2 mb 0.00 in0.0 mm 0.00 in/hr0.0 mm/hr 0.00 in0.0 mm
01:46 PM 18.0°F-7.8°C 8.8°F-12.9°C 67% 6.9 mph WSW11.1 kmh WSW 15.0 mph24.1 kmh 29.99 in1015.6 mb 0.00 in0.0 mm 0.00 in/hr0.0 mm/hr 0.00 in0.0 mm
01:41 PM 18.1°F-7.7°C 8.8°F-12.9°C 66% 6.0 mph WNW9.7 kmh WNW 17.0 mph27.4 kmh 29.98 in1015.2 mb 0.00 in0.0 mm 0.00 in/hr0.0 mm/hr 0.00 in0.0 mm
01:36 PM 18.0°F-7.8°C 8.2°F-13.2°C 65% 4.9 mph NW7.9 kmh NW 13.0 mph20.9 kmh 29.98 in1015.2 mb 0.00 in0.0 mm 0.00 in/hr0.0 mm/hr 0.00 in0.0 mm
01:31 PM 18.7°F-7.4°C 9.1°F-12.7°C 66% 6.9 mph NW11.1 kmh NW 12.1 mph19.5 kmh 29.98 in1015.2 mb 0.00 in0.0 mm 0.00 in/hr0.0 mm/hr 0.00 in0.0 mm
01:26 PM 17.8°F-7.9°C 8.4°F-13.1°C 66% 8.1 mph NW13.0 kmh NW 17.9 mph28.8 kmh 29.98 in1015.2 mb 0.00 in0.0 mm 0.00 in/hr0.0 mm/hr 0.00 in0.0 mm
01:21 PM 17.6°F-8.0°C 8.2°F-13.2°C 66% 6.9 mph NW11.1 kmh NW 13.0 mph20.9 kmh 29.98 in1015.2 mb 0.00 in0.0 mm 0.00 in/hr0.0 mm/hr 0.00 in0.0 mm
01:16 PM 17.4°F-8.1°C 8.1°F-13.3°C 66% 6.0 mph W9.7 kmh W 15.0 mph24.1 kmh 29.99 in1015.6 mb 0.00 in0.0 mm 0.00 in/hr0.0 mm/hr 0.00 in0.0 mm
01:11 PM 18.7°F-7.4°C 8.6°F-13.0°C 64% 6.9 mph WNW11.1 kmh WNW 13.0 mph20.9 kmh 29.98 in1015.2 mb 0.00 in0.0 mm 0.00 in/hr0.0 mm/hr 0.00 in0.0 mm
01:06 PM 18.3°F-7.6°C 8.2°F-13.2°C 64% 6.9 mph NW11.1 kmh NW 15.0 mph24.1 kmh 29.98 in1015.2 mb 0.00 in0.0 mm 0.00 in/hr0.0 mm/hr 0.00 in0.0 mm
01:01 PM 18.9°F-7.3°C 8.8°F-12.9°C 64% 6.9 mph WNW11.1 kmh WNW 13.0 mph20.9 kmh 29.99 in1015.6 mb 0.00 in0.0 mm 0.00 in/hr0.0 mm/hr 0.00 in0.0 mm
12:56 PM 18.3°F-7.6°C 8.6°F-13.0°C 65% 8.1 mph WSW13.0 kmh WSW 15.0 mph24.1 kmh 29.98 in1015.2 mb 0.00 in0.0 mm 0.00 in/hr0.0 mm/hr 0.00 in0.0 mm
12:51 PM 19.0°F-7.2°C 8.6°F-13.0°C 63% 6.9 mph WNW11.1 kmh WNW 15.0 mph24.1 kmh 29.98 in1015.2 mb 0.00 in0.0 mm 0.00 in/hr0.0 mm/hr 0.00 in0.0 mm
12:46 PM 19.6°F-6.9°C 9.3°F-12.6°C 64% 6.9 mph W11.1 kmh W 13.0 mph20.9 kmh 29.98 in1015.2 mb 0.00 in0.0 mm 0.00 in/hr0.0 mm/hr 0.00 in0.0 mm
12:41 PM 18.7°F-7.4°C 8.2°F-13.2°C 63% 6.0 mph W9.7 kmh W 17.0 mph27.4 kmh 29.98 in1015.2 mb 0.00 in0.0 mm 0.00 in/hr0.0 mm/hr 0.00 in0.0 mm
12:36 PM 18.7°F-7.4°C 8.6°F-13.0°C 64% 4.9 mph W7.9 kmh W 13.0 mph20.9 kmh 29.98 in1015.2 mb 0.00 in0.0 mm 0.00 in/hr0.0 mm/hr 0.00 in0.0 mm
12:31 PM 18.9°F-7.3°C 8.4°F-13.1°C 63% 4.9 mph NNW7.9 kmh NNW 11.0 mph17.7 kmh 29.98 in1015.2 mb 0.00 in0.0 mm 0.00 in/hr0.0 mm/hr 0.00 in0.0 mm
12:26 PM 18.9°F-7.3°C 9.0°F-12.8°C 65% 4.9 mph NW7.9 kmh NW 10.1 mph16.3 kmh 29.97 in1014.9 mb 0.00 in0.0 mm 0.00 in/hr0.0 mm/hr 0.00 in0.0 mm
12:21 PM 18.5°F-7.5°C 8.4°F-13.1°C 64% 4.9 mph NW7.9 kmh NW 14.1 mph22.7 kmh 29.97 in1014.9 mb 0.00 in0.0 mm 0.00 in/hr0.0 mm/hr 0.00 in0.0 mm
12:16 PM 18.3°F-7.6°C 8.6°F-13.0°C 65% 6.0 mph W9.7 kmh W 11.0 mph17.7 kmh 29.97 in1014.9 mb 0.00 in0.0 mm 0.00 in/hr0.0 mm/hr 0.00 in0.0 mm
12:11 PM 18.0°F-7.8°C 7.9°F-13.4°C 64% 6.9 mph W11.1 kmh W 13.0 mph20.9 kmh 29.97 in1014.9 mb 0.00 in0.0 mm 0.00 in/hr0.0 mm/hr 0.00 in0.0 mm
12:06 PM 16.9°F-8.4°C 7.5°F-13.6°C 66% 6.9 mph WNW11.1 kmh WNW 19.0 mph30.6 kmh 29.97 in1014.9 mb 0.00 in0.0 mm 0.00 in/hr0.0 mm/hr 0.00 in0.0 mm
12:01 PM 16.9°F-8.4°C 7.5°F-13.6°C 66% 6.0 mph NW9.7 kmh NW 15.0 mph24.1 kmh 29.96 in1014.6 mb 0.00 in0.0 mm 0.00 in/hr0.0 mm/hr 0.00 in0.0 mm
11:56 AM 17.2°F-8.2°C 7.9°F-13.4°C 66% 4.9 mph NW7.9 kmh NW 12.1 mph19.5 kmh 29.96 in1014.6 mb 0.00 in0.0 mm 0.00 in/hr0.0 mm/hr 0.00 in0.0 mm
11:51 AM 17.8°F-7.9°C 8.4°F-13.1°C 66% 4.9 mph WNW7.9 kmh WNW 12.1 mph19.5 kmh 29.96 in1014.6 mb 0.00 in0.0 mm 0.00 in/hr0.0 mm/hr 0.00 in0.0 mm
11:46 AM 18.3°F-7.6°C 9.1°F-12.7°C 67% 4.0 mph NNW6.4 kmh NNW 10.1 mph16.3 kmh 29.96 in1014.6 mb 0.00 in0.0 mm 0.00 in/hr0.0 mm/hr 0.00 in0.0 mm
11:41 AM 18.0°F-7.8°C 9.1°F-12.7°C 68% 4.0 mph W6.4 kmh W 13.0 mph20.9 kmh 29.96 in1014.6 mb 0.00 in0.0 mm 0.00 in/hr0.0 mm/hr 0.00 in0.0 mm
11:36 AM 18.1°F-7.7°C 9.0°F-12.8°C 67% 4.9 mph NW7.9 kmh NW 10.1 mph16.3 kmh 29.96 in1014.6 mb 0.00 in0.0 mm 0.00 in/hr0.0 mm/hr 0.00 in0.0 mm
11:31 AM 18.1°F-7.7°C 9.3°F-12.6°C 68% 6.9 mph NW11.1 kmh NW 16.1 mph25.9 kmh 29.96 in1014.6 mb 0.00 in0.0 mm 0.00 in/hr0.0 mm/hr 0.00 in0.0 mm
11:26 AM 17.6°F-8.0°C 9.1°F-12.7°C 69% 6.9 mph W11.1 kmh W 16.1 mph25.9 kmh 29.96 in1014.6 mb 0.00 in0.0 mm 0.00 in/hr0.0 mm/hr 0.00 in0.0 mm
11:21 AM 17.2°F-8.2°C 8.8°F-12.9°C 69% 6.0 mph NW9.7 kmh NW 16.0 mph25.7 kmh 29.96 in1014.6 mb 0.00 in0.0 mm 0.00 in/hr0.0 mm/hr 0.00 in0.0 mm
11:16 AM 17.1°F-8.3°C 8.6°F-13.0°C 69% 6.0 mph NW9.7 kmh NW 13.0 mph20.9 kmh 29.96 in1014.6 mb 0.00 in0.0 mm 0.00 in/hr0.0 mm/hr 0.00 in0.0 mm
11:11 AM 17.4°F-8.1°C 8.6°F-13.0°C 68% 4.9 mph NW7.9 kmh NW 16.1 mph25.9 kmh 29.96 in1014.6 mb 0.00 in0.0 mm 0.00 in/hr0.0 mm/hr 0.00 in0.0 mm
11:06 AM 17.8°F-7.9°C 9.3°F-12.6°C 69% 4.9 mph NW7.9 kmh NW 12.1 mph19.5 kmh 29.96 in1014.6 mb 0.00 in0.0 mm 0.00 in/hr0.0 mm/hr 0.00 in0.0 mm
11:01 AM 17.1°F-8.3°C 8.2°F-13.2°C 68% 4.9 mph NW7.9 kmh NW 10.1 mph16.3 kmh 29.96 in1014.6 mb 0.00 in0.0 mm 0.00 in/hr0.0 mm/hr 0.00 in0.0 mm
10:56 AM 16.2°F-8.8°C 8.1°F-13.3°C 70% 6.0 mph NNW9.7 kmh NNW 12.1 mph19.5 kmh 29.96 in1014.6 mb 0.00 in0.0 mm 0.00 in/hr0.0 mm/hr 0.00 in0.0 mm
10:51 AM 16.3°F-8.7°C 7.9°F-13.4°C 69% 4.9 mph NNW7.9 kmh NNW 12.1 mph19.5 kmh 29.96 in1014.6 mb 0.00 in0.0 mm 0.00 in/hr0.0 mm/hr 0.00 in0.0 mm
10:46 AM 16.9°F-8.4°C 8.8°F-12.9°C 70% 4.9 mph W7.9 kmh W 8.9 mph14.3 kmh 29.96 in1014.6 mb 0.00 in0.0 mm 0.00 in/hr0.0 mm/hr 0.00 in0.0 mm
10:41 AM 16.3°F-8.7°C 7.9°F-13.4°C 69% 4.9 mph WSW7.9 kmh WSW 12.1 mph19.5 kmh 29.96 in1014.6 mb 0.00 in0.0 mm 0.00 in/hr0.0 mm/hr 0.00 in0.0 mm
10:36 AM 16.3°F-8.7°C 8.2°F-13.2°C 70% 4.9 mph WNW7.9 kmh WNW 12.1 mph19.5 kmh 29.96 in1014.6 mb 0.00 in0.0 mm 0.00 in/hr0.0 mm/hr 0.00 in0.0 mm
10:31 AM 16.3°F-8.7°C 8.2°F-13.2°C 70% 6.0 mph NNW9.7 kmh NNW 11.0 mph17.7 kmh 29.96 in1014.6 mb 0.00 in0.0 mm 0.00 in/hr0.0 mm/hr 0.00 in0.0 mm
10:26 AM 16.3°F-8.7°C 8.2°F-13.2°C 70% 6.0 mph NNW9.7 kmh NNW 8.9 mph14.3 kmh 29.96 in1014.6 mb 0.00 in0.0 mm 0.00 in/hr0.0 mm/hr 0.00 in0.0 mm
10:21 AM 16.9°F-8.4°C 9.1°F-12.7°C 71% 4.9 mph WNW7.9 kmh WNW 12.1 mph19.5 kmh 29.96 in1014.6 mb 0.00 in0.0 mm 0.00 in/hr0.0 mm/hr 0.00 in0.0 mm
10:16 AM 16.3°F-8.7°C 9.1°F-12.7°C 73% 6.9 mph WSW11.1 kmh WSW 13.0 mph20.9 kmh 29.96 in1014.6 mb 0.00 in0.0 mm 0.00 in/hr0.0 mm/hr 0.00 in0.0 mm
10:11 AM 16.0°F-8.9°C 8.2°F-13.2°C 71% 8.1 mph W13.0 kmh W 16.1 mph25.9 kmh 29.95 in1014.2 mb 0.00 in0.0 mm 0.00 in/hr0.0 mm/hr 0.00 in0.0 mm
10:06 AM 16.0°F-8.9°C 7.9°F-13.4°C 70% 6.9 mph WNW11.1 kmh WNW 15.0 mph24.1 kmh 29.96 in1014.6 mb 0.00 in0.0 mm 0.00 in/hr0.0 mm/hr 0.00 in0.0 mm
10:01 AM 16.3°F-8.7°C 8.2°F-13.2°C 70% 6.9 mph NW11.1 kmh NW 15.0 mph24.1 kmh 29.96 in1014.6 mb 0.00 in0.0 mm 0.00 in/hr0.0 mm/hr 0.00 in0.0 mm
09:56 AM 16.5°F-8.6°C 9.1°F-12.7°C 72% 6.0 mph W9.7 kmh W 15.0 mph24.1 kmh 29.96 in1014.6 mb 0.00 in0.0 mm 0.00 in/hr0.0 mm/hr 0.00 in0.0 mm
09:51 AM 16.5°F-8.6°C 8.8°F-12.9°C 71% 6.0 mph NW9.7 kmh NW 13.0 mph20.9 kmh 29.95 in1014.2 mb 0.00 in0.0 mm 0.00 in/hr0.0 mm/hr 0.00 in0.0 mm
09:46 AM 16.5°F-8.6°C 8.8°F-12.9°C 71% 4.9 mph WNW7.9 kmh WNW 13.0 mph20.9 kmh 29.95 in1014.2 mb 0.00 in0.0 mm 0.00 in/hr0.0 mm/hr 0.00 in0.0 mm
09:41 AM 16.5°F-8.6°C 8.8°F-12.9°C 71% 4.9 mph W7.9 kmh W 10.1 mph16.3 kmh 29.95 in1014.2 mb 0.00 in0.0 mm 0.00 in/hr0.0 mm/hr 0.00 in0.0 mm
09:36 AM 16.7°F-8.5°C 9.0°F-12.8°C 71% 4.9 mph N7.9 kmh N 12.1 mph19.5 kmh 29.95 in1014.2 mb 0.00 in0.0 mm 0.00 in/hr0.0 mm/hr 0.00 in0.0 mm
09:31 AM 16.2°F-8.8°C 8.8°F-12.9°C 72% 6.0 mph N9.7 kmh N 13.0 mph20.9 kmh 29.94 in1013.9 mb 0.00 in0.0 mm 0.00 in/hr0.0 mm/hr 0.00 in0.0 mm
09:26 AM 16.0°F-8.9°C 8.2°F-13.2°C 71% 6.9 mph NW11.1 kmh NW 15.0 mph24.1 kmh 29.94 in1013.9 mb 0.00 in0.0 mm 0.00 in/hr0.0 mm/hr 0.00 in0.0 mm
09:21 AM 15.8°F-9.0°C 8.1°F-13.3°C 71% 6.9 mph NNW11.1 kmh NNW 17.0 mph27.4 kmh 29.94 in1013.9 mb 0.00 in0.0 mm 0.00 in/hr0.0 mm/hr 0.00 in0.0 mm
09:16 AM 16.0°F-8.9°C 8.8°F-12.9°C 73% 6.0 mph W9.7 kmh W 13.0 mph20.9 kmh 29.94 in1013.9 mb 0.00 in0.0 mm 0.00 in/hr0.0 mm/hr 0.00 in0.0 mm
09:11 AM 16.0°F-8.9°C 8.8°F-12.9°C 73% 6.0 mph W9.7 kmh W 13.0 mph20.9 kmh 29.94 in1013.9 mb 0.00 in0.0 mm 0.00 in/hr0.0 mm/hr 0.00 in0.0 mm
09:06 AM 16.0°F-8.9°C 8.8°F-12.9°C 73% 6.0 mph W9.7 kmh W 13.0 mph20.9 kmh 29.93 in1013.5 mb 0.00 in0.0 mm 0.00 in/hr0.0 mm/hr 0.00 in0.0 mm
09:01 AM 16.0°F-8.9°C 9.1°F-12.7°C 74% 6.0 mph NW9.7 kmh NW 14.1 mph22.7 kmh 29.93 in1013.5 mb 0.00 in0.0 mm 0.00 in/hr0.0 mm/hr 0.00 in0.0 mm
08:56 AM 16.0°F-8.9°C 9.1°F-12.7°C 74% 4.9 mph WNW7.9 kmh WNW 15.0 mph24.1 kmh 29.93 in1013.5 mb 0.00 in0.0 mm 0.00 in/hr0.0 mm/hr 0.00 in0.0 mm
08:51 AM 16.2°F-8.8°C 9.9°F-12.3°C 76% 4.9 mph N7.9 kmh N 8.1 mph13.0 kmh 29.93 in1013.5 mb 0.00 in0.0 mm 0.00 in/hr0.0 mm/hr 0.00 in0.0 mm
08:46 AM 16.0°F-8.9°C 9.5°F-12.5°C 75% 6.0 mph WNW9.7 kmh WNW 10.1 mph16.3 kmh 29.92 in1013.2 mb 0.00 in0.0 mm 0.00 in/hr0.0 mm/hr 0.00 in0.0 mm
08:41 AM 16.0°F-8.9°C 9.5°F-12.5°C 75% 6.0 mph WNW9.7 kmh WNW 11.0 mph17.7 kmh 29.92 in1013.2 mb 0.00 in0.0 mm 0.00 in/hr0.0 mm/hr 0.00 in0.0 mm
08:36 AM 15.8°F-9.0°C 9.3°F-12.6°C 75% 6.0 mph NW9.7 kmh NW 12.1 mph19.5 kmh 29.92 in1013.2 mb 0.00 in0.0 mm 0.00 in/hr0.0 mm/hr 0.00 in0.0 mm
08:31 AM 16.0°F-8.9°C 9.1°F-12.7°C 74% 4.9 mph WNW7.9 kmh WNW 12.1 mph19.5 kmh 29.92 in1013.2 mb 0.00 in0.0 mm 0.00 in/hr0.0 mm/hr 0.00 in0.0 mm
08:26 AM 15.8°F-9.0°C 8.6°F-13.0°C 73% 4.9 mph NW7.9 kmh NW 11.0 mph17.7 kmh 29.91 in1012.9 mb 0.00 in0.0 mm 0.00 in/hr0.0 mm/hr 0.00 in0.0 mm
08:16 AM 15.8°F-9.0°C 9.3°F-12.6°C 75% 4.9 mph W7.9 kmh W 11.0 mph17.7 kmh 29.91 in1012.9 mb 0.00 in0.0 mm 0.00 in/hr0.0 mm/hr 0.00 in0.0 mm
08:11 AM 15.6°F-9.1°C 9.1°F-12.7°C 75% 4.9 mph NNW7.9 kmh NNW 11.0 mph17.7 kmh 29.91 in1012.9 mb 0.00 in0.0 mm 0.00 in/hr0.0 mm/hr 0.00 in0.0 mm
08:06 AM 15.6°F-9.1°C 9.1°F-12.7°C 75% 4.9 mph WNW7.9 kmh WNW 11.0 mph17.7 kmh 29.91 in1012.9 mb 0.00 in0.0 mm 0.00 in/hr0.0 mm/hr 0.00 in0.0 mm
08:01 AM 15.6°F-9.1°C 9.5°F-12.5°C 76% 4.9 mph W7.9 kmh W 11.0 mph17.7 kmh 29.91 in1012.9 mb 0.00 in0.0 mm 0.00 in/hr0.0 mm/hr 0.00 in0.0 mm
07:56 AM 15.4°F-9.2°C 9.3°F-12.6°C 76% 4.9 mph NW7.9 kmh NW 11.0 mph17.7 kmh 29.90 in1012.5 mb 0.00 in0.0 mm 0.00 in/hr0.0 mm/hr 0.00 in0.0 mm
07:51 AM 15.4°F-9.2°C 9.3°F-12.6°C 76% 4.9 mph W7.9 kmh W 8.9 mph14.3 kmh 29.89 in1012.2 mb 0.00 in0.0 mm 0.00 in/hr0.0 mm/hr 0.00 in0.0 mm
07:46 AM 15.4°F-9.2°C 9.3°F-12.6°C 76% 4.9 mph WSW7.9 kmh WSW 11.0 mph17.7 kmh 29.90 in1012.5 mb 0.00 in0.0 mm 0.00 in/hr0.0 mm/hr 0.00 in0.0 mm
07:41 AM 15.4°F-9.2°C 9.5°F-12.5°C 77% 6.0 mph WNW9.7 kmh WNW 10.1 mph16.3 kmh 29.89 in1012.2 mb 0.00 in0.0 mm 0.00 in/hr0.0 mm/hr 0.00 in0.0 mm
07:36 AM 15.6°F-9.1°C 9.5°F-12.5°C 76% 6.0 mph WNW9.7 kmh WNW 12.1 mph19.5 kmh 29.88 in1011.9 mb 0.00 in0.0 mm 0.00 in/hr0.0 mm/hr 0.00 in0.0 mm
07:31 AM 15.6°F-9.1°C 9.7°F-12.4°C 77% 4.9 mph NW7.9 kmh NW 10.1 mph16.3 kmh 29.88 in1011.9 mb 0.00 in0.0 mm 0.00 in/hr0.0 mm/hr 0.00 in0.0 mm
07:26 AM 16.0°F-8.9°C 10.0°F-12.2°C 77% 6.0 mph NNW9.7 kmh NNW 12.1 mph19.5 kmh 29.89 in1012.2 mb 0.00 in0.0 mm 0.00 in/hr0.0 mm/hr 0.00 in0.0 mm
07:21 AM 16.0°F-8.9°C 10.0°F-12.2°C 77% 6.0 mph WNW9.7 kmh WNW 18.0 mph29.0 kmh 29.89 in1012.2 mb 0.00 in0.0 mm 0.00 in/hr0.0 mm/hr 0.00 in0.0 mm
07:16 AM 16.2°F-8.8°C 10.2°F-12.1°C 77% 6.9 mph WNW11.1 kmh WNW 13.0 mph20.9 kmh 29.88 in1011.9 mb 0.00 in0.0 mm 0.00 in/hr0.0 mm/hr 0.00 in0.0 mm
07:11 AM 16.3°F-8.7°C 10.4°F-12.0°C 77% 6.9 mph W11.1 kmh W 18.0 mph29.0 kmh 29.88 in1011.9 mb 0.00 in0.0 mm 0.00 in/hr0.0 mm/hr 0.00 in0.0 mm
07:06 AM 16.5°F-8.6°C 10.6°F-11.9°C 77% 6.0 mph NW9.7 kmh NW 17.0 mph27.4 kmh 29.88 in1011.9 mb 0.00 in0.0 mm 0.00 in/hr0.0 mm/hr 0.00 in0.0 mm
07:01 AM 16.7°F-8.5°C 10.8°F-11.8°C 77% 6.0 mph NW9.7 kmh NW 15.0 mph24.1 kmh 29.88 in1011.9 mb 0.00 in0.0 mm 0.00 in/hr0.0 mm/hr 0.00 in0.0 mm
06:56 AM 16.9°F-8.4°C 10.6°F-11.9°C 76% 6.0 mph W9.7 kmh W 14.1 mph22.7 kmh 29.88 in1011.9 mb 0.00 in0.0 mm 0.00 in/hr0.0 mm/hr 0.00 in0.0 mm
06:51 AM 17.1°F-8.3°C 11.1°F-11.6°C 77% 4.9 mph NNW7.9 kmh NNW 13.0 mph20.9 kmh 29.88 in1011.9 mb 0.00 in0.0 mm 0.00 in/hr0.0 mm/hr 0.00 in0.0 mm
06:46 AM 17.1°F-8.3°C 11.5°F-11.4°C 78% 4.0 mph NNW6.4 kmh NNW 10.1 mph16.3 kmh 29.87 in1011.5 mb 0.00 in0.0 mm 0.00 in/hr0.0 mm/hr 0.00 in0.0 mm
06:41 AM 17.2°F-8.2°C 11.5°F-11.4°C 78% 4.0 mph NW6.4 kmh NW 8.9 mph14.3 kmh 29.87 in1011.5 mb 0.00 in0.0 mm 0.00 in/hr0.0 mm/hr 0.00 in0.0 mm
06:36 AM 17.2°F-8.2°C 11.5°F-11.4°C 78% 4.0 mph WSW6.4 kmh WSW 11.0 mph17.7 kmh 29.87 in1011.5 mb 0.00 in0.0 mm 0.00 in/hr0.0 mm/hr 0.00 in0.0 mm
06:31 AM 17.4°F-8.1°C 12.4°F-10.9°C 80% 4.0 mph NW6.4 kmh NW 8.9 mph14.3 kmh 29.88 in1011.9 mb 0.00 in0.0 mm 0.00 in/hr0.0 mm/hr 0.00 in0.0 mm
06:26 AM 17.6°F-8.0°C 12.2°F-11.0°C 79% 4.9 mph WNW7.9 kmh WNW 11.0 mph17.7 kmh 29.87 in1011.5 mb 0.00 in0.0 mm 0.00 in/hr0.0 mm/hr 0.00 in0.0 mm
06:21 AM 17.8°F-7.9°C 12.4°F-10.9°C 79% 4.9 mph WNW7.9 kmh WNW 11.0 mph17.7 kmh 29.87 in1011.5 mb 0.00 in0.0 mm 0.00 in/hr0.0 mm/hr 0.00 in0.0 mm
06:16 AM 17.8°F-7.9°C 12.4°F-10.9°C 79% 4.9 mph W7.9 kmh W 11.0 mph17.7 kmh 29.87 in1011.5 mb 0.00 in0.0 mm 0.00 in/hr0.0 mm/hr 0.00 in0.0 mm
06:11 AM 18.0°F-7.8°C 12.6°F-10.8°C 79% 4.9 mph WSW7.9 kmh WSW 13.0 mph20.9 kmh 29.86 in1011.2 mb 0.00 in0.0 mm 0.00 in/hr0.0 mm/hr 0.00 in0.0 mm
06:06 AM 18.1°F-7.7°C 12.7°F-10.7°C 79% 4.9 mph NW7.9 kmh NW 10.1 mph16.3 kmh 29.86 in1011.2 mb 0.00 in0.0 mm 0.00 in/hr0.0 mm/hr 0.00 in0.0 mm
06:01 AM 18.1°F-7.7°C 12.7°F-10.7°C 79% 6.0 mph NNW9.7 kmh NNW 12.1 mph19.5 kmh 29.85 in1010.8 mb 0.00 in0.0 mm 0.00 in/hr0.0 mm/hr 0.00 in0.0 mm
05:56 AM 18.3°F-7.6°C 12.9°F-10.6°C 79% 6.0 mph NW9.7 kmh NW 13.0 mph20.9 kmh 29.85 in1010.8 mb 0.00 in0.0 mm 0.00 in/hr0.0 mm/hr 0.00 in0.0 mm
05:51 AM 18.3°F-7.6°C 13.3°F-10.4°C 80% 6.0 mph WNW9.7 kmh WNW 13.0 mph20.9 kmh 29.84 in1010.5 mb 0.00 in0.0 mm 0.00 in/hr0.0 mm/hr 0.00 in0.0 mm
05:46 AM 18.5°F-7.5°C 13.3°F-10.4°C 80% 6.0 mph NNW9.7 kmh NNW 12.1 mph19.5 kmh 29.84 in1010.5 mb 0.00 in0.0 mm 0.00 in/hr0.0 mm/hr 0.00 in0.0 mm
05:41 AM 18.5°F-7.5°C 13.6°F-10.2°C 81% 4.9 mph NW7.9 kmh NW 12.1 mph19.5 kmh 29.84 in1010.5 mb 0.00 in0.0 mm 0.00 in/hr0.0 mm/hr 0.00 in0.0 mm
05:36 AM 18.7°F-7.4°C 14.2°F-9.9°C 82% 4.0 mph NW6.4 kmh NW 8.9 mph14.3 kmh 29.84 in1010.5 mb 0.00 in0.0 mm 0.00 in/hr0.0 mm/hr 0.00 in0.0 mm
05:31 AM 18.9°F-7.3°C 14.5°F-9.7°C 83% 4.0 mph WNW6.4 kmh WNW 8.9 mph14.3 kmh 29.84 in1010.5 mb 0.00 in0.0 mm 0.00 in/hr0.0 mm/hr 0.00 in0.0 mm
05:26 AM 19.0°F-7.2°C 14.7°F-9.6°C 83% 4.9 mph W7.9 kmh W 10.1 mph16.3 kmh 29.83 in1010.2 mb 0.00 in0.0 mm 0.00 in/hr0.0 mm/hr 0.00 in0.0 mm
05:21 AM 19.0°F-7.2°C 14.7°F-9.6°C 83% 4.0 mph W6.4 kmh W 12.0 mph19.3 kmh 29.83 in1010.2 mb 0.00 in0.0 mm 0.00 in/hr0.0 mm/hr 0.00 in0.0 mm
05:16 AM 19.0°F-7.2°C 14.7°F-9.6°C 83% 4.0 mph W6.4 kmh W 8.1 mph13.0 kmh 29.83 in1010.2 mb 0.00 in0.0 mm 0.00 in/hr0.0 mm/hr 0.00 in0.0 mm
05:11 AM 19.0°F-7.2°C 14.7°F-9.6°C 83% 4.0 mph W6.4 kmh W 12.1 mph19.5 kmh 29.83 in1010.2 mb 0.00 in0.0 mm 0.00 in/hr0.0 mm/hr 0.00 in0.0 mm
05:06 AM 19.0°F-7.2°C 15.1°F-9.4°C 84% 2.9 mph NW4.7 kmh NW 10.1 mph16.3 kmh 29.82 in1009.8 mb 0.00 in0.0 mm 0.00 in/hr0.0 mm/hr 0.00 in0.0 mm
05:01 AM 19.0°F-7.2°C 15.1°F-9.4°C 84% 4.0 mph NW6.4 kmh NW 6.9 mph11.1 kmh 29.81 in1009.5 mb 0.00 in0.0 mm 0.00 in/hr0.0 mm/hr 0.00 in0.0 mm
04:55 AM 19.0°F-7.2°C 15.1°F-9.4°C 84% 2.9 mph WNW4.7 kmh WNW 10.1 mph16.3 kmh 29.81 in1009.5 mb 0.00 in0.0 mm 0.00 in/hr0.0 mm/hr 0.00 in0.0 mm
04:50 AM 19.0°F-7.2°C 15.1°F-9.4°C 84% 2.9 mph WSW4.7 kmh WSW 8.1 mph13.0 kmh 29.80 in1009.1 mb 0.00 in0.0 mm 0.00 in/hr0.0 mm/hr 0.00 in0.0 mm
04:45 AM 19.0°F-7.2°C 15.3°F-9.3°C 85% 2.9 mph NW4.7 kmh NW 8.1 mph13.0 kmh 29.80 in1009.1 mb 0.00 in0.0 mm 0.00 in/hr0.0 mm/hr 0.00 in0.0 mm
04:40 AM 19.0°F-7.2°C 15.3°F-9.3°C 85% 2.9 mph NW4.7 kmh NW 8.1 mph13.0 kmh 29.80 in1009.1 mb 0.00 in0.0 mm 0.00 in/hr0.0 mm/hr 0.00 in0.0 mm
04:35 AM 19.0°F-7.2°C 15.1°F-9.4°C 84% 2.9 mph W4.7 kmh W 6.9 mph11.1 kmh 29.79 in1008.8 mb 0.00 in0.0 mm 0.00 in/hr0.0 mm/hr 0.00 in0.0 mm
04:30 AM 19.2°F-7.1°C 15.3°F-9.3°C 84% 2.9 mph W4.7 kmh W 8.9 mph14.3 kmh 29.79 in1008.8 mb 0.00 in0.0 mm 0.00 in/hr0.0 mm/hr 0.00 in0.0 mm
04:25 AM 19.2°F-7.1°C 15.3°F-9.3°C 84% 2.9 mph W4.7 kmh W 6.0 mph9.7 kmh 29.79 in1008.8 mb 0.00 in0.0 mm 0.00 in/hr0.0 mm/hr 0.00 in0.0 mm
04:20 AM 19.4°F-7.0°C 15.4°F-9.2°C 84% 4.0 mph WNW6.4 kmh WNW 8.9 mph14.3 kmh 29.79 in1008.8 mb 0.00 in0.0 mm 0.00 in/hr0.0 mm/hr 0.00 in0.0 mm
04:15 AM 19.6°F-6.9°C 15.6°F-9.1°C 84% 4.0 mph WSW6.4 kmh WSW 11.0 mph17.7 kmh 29.79 in1008.8 mb 0.00 in0.0 mm 0.00 in/hr0.0 mm/hr 0.00 in0.0 mm
04:10 AM 19.8°F-6.8°C 15.4°F-9.2°C 83% 4.9 mph W7.9 kmh W 8.9 mph14.3 kmh 29.79 in1008.8 mb 0.00 in0.0 mm 0.00 in/hr0.0 mm/hr 0.00 in0.0 mm
04:05 AM 19.6°F-6.9°C 15.3°F-9.3°C 83% 4.0 mph WNW6.4 kmh WNW 10.1 mph16.3 kmh 29.78 in1008.5 mb 0.00 in0.0 mm 0.00 in/hr0.0 mm/hr 0.00 in0.0 mm
04:00 AM 19.8°F-6.8°C 15.4°F-9.2°C 83% 2.9 mph W4.7 kmh W 6.9 mph11.1 kmh 29.78 in1008.5 mb 0.00 in0.0 mm 0.00 in/hr0.0 mm/hr 0.00 in0.0 mm
03:55 AM 19.9°F-6.7°C 15.3°F-9.3°C 82% 4.9 mph WSW7.9 kmh WSW 8.9 mph14.3 kmh 29.78 in1008.5 mb 0.00 in0.0 mm 0.00 in/hr0.0 mm/hr 0.00 in0.0 mm
03:50 AM 19.9°F-6.7°C 15.1°F-9.4°C 81% 4.9 mph WNW7.9 kmh WNW 14.1 mph22.7 kmh 29.78 in1008.5 mb 0.00 in0.0 mm 0.00 in/hr0.0 mm/hr 0.00 in0.0 mm
03:45 AM 20.1°F-6.6°C 14.9°F-9.5°C 80% 4.9 mph NW7.9 kmh NW 13.0 mph20.9 kmh 29.77 in1008.1 mb 0.00 in0.0 mm 0.00 in/hr0.0 mm/hr 0.00 in0.0 mm
03:40 AM 20.1°F-6.6°C 14.9°F-9.5°C 80% 4.9 mph WNW7.9 kmh WNW 19.0 mph30.6 kmh 29.77 in1008.1 mb 0.00 in0.0 mm 0.00 in/hr0.0 mm/hr 0.00 in0.0 mm
03:35 AM 20.3°F-6.5°C 15.1°F-9.4°C 80% 6.0 mph NW9.7 kmh NW 12.1 mph19.5 kmh 29.77 in1008.1 mb 0.00 in0.0 mm 0.00 in/hr0.0 mm/hr 0.00 in0.0 mm
03:30 AM 20.5°F-6.4°C 15.3°F-9.3°C 80% 6.0 mph WNW9.7 kmh WNW 17.0 mph27.4 kmh 29.77 in1008.1 mb 0.00 in0.0 mm 0.00 in/hr0.0 mm/hr 0.00 in0.0 mm
03:25 AM 20.7°F-6.3°C 15.4°F-9.2°C 80% 6.0 mph WNW9.7 kmh WNW 12.1 mph19.5 kmh 29.77 in1008.1 mb 0.00 in0.0 mm 0.00 in/hr0.0 mm/hr 0.00 in0.0 mm
03:20 AM 20.8°F-6.2°C 15.6°F-9.1°C 80% 4.9 mph W7.9 kmh W 13.0 mph20.9 kmh 29.77 in1008.1 mb 0.00 in0.0 mm 0.00 in/hr0.0 mm/hr 0.00 in0.0 mm
03:15 AM 21.0°F-6.1°C 15.8°F-9.0°C 80% 4.9 mph NW7.9 kmh NW 13.0 mph20.9 kmh 29.76 in1007.8 mb 0.00 in0.0 mm 0.00 in/hr0.0 mm/hr 0.00 in0.0 mm
03:10 AM 21.4°F-5.9°C 16.2°F-8.8°C 80% 6.0 mph WNW9.7 kmh WNW 12.1 mph19.5 kmh 29.76 in1007.8 mb 0.00 in0.0 mm 0.00 in/hr0.0 mm/hr 0.00 in0.0 mm
03:05 AM 21.6°F-5.8°C 16.3°F-8.7°C 80% 6.9 mph WNW11.1 kmh WNW 14.1 mph22.7 kmh 29.76 in1007.8 mb 0.00 in0.0 mm 0.00 in/hr0.0 mm/hr 0.00 in0.0 mm
03:00 AM 21.7°F-5.7°C 16.5°F-8.6°C 80% 8.1 mph WNW13.0 kmh WNW 17.0 mph27.4 kmh 29.76 in1007.8 mb 0.00 in0.0 mm 0.00 in/hr0.0 mm/hr 0.00 in0.0 mm
02:55 AM 21.9°F-5.6°C 16.7°F-8.5°C 80% 8.1 mph W13.0 kmh W 17.0 mph27.4 kmh 29.75 in1007.5 mb 0.00 in0.0 mm 0.00 in/hr0.0 mm/hr 0.00 in0.0 mm
02:50 AM 22.3°F-5.4°C 17.1°F-8.3°C 80% 6.9 mph NW11.1 kmh NW 19.9 mph32.0 kmh 29.75 in1007.5 mb 0.00 in0.0 mm 0.00 in/hr0.0 mm/hr 0.00 in0.0 mm
02:45 AM 22.6°F-5.2°C 18.5°F-7.5°C 84% 6.0 mph NW9.7 kmh NW 16.1 mph25.9 kmh 29.75 in1007.5 mb 0.00 in0.0 mm 0.00 in/hr0.0 mm/hr 0.00 in0.0 mm
02:40 AM 22.8°F-5.1°C 19.0°F-7.2°C 85% 6.0 mph WNW9.7 kmh WNW 12.1 mph19.5 kmh 29.75 in1007.5 mb 0.00 in0.0 mm 0.00 in/hr0.0 mm/hr 0.00 in0.0 mm
02:35 AM 22.8°F-5.1°C 19.0°F-7.2°C 85% 6.0 mph NW9.7 kmh NW 12.1 mph19.5 kmh 29.75 in1007.5 mb 0.00 in0.0 mm 0.00 in/hr0.0 mm/hr 0.00 in0.0 mm
02:30 AM 23.0°F-5.0°C 19.8°F-6.8°C 87% 6.9 mph NW11.1 kmh NW 14.1 mph22.7 kmh 29.74 in1007.1 mb 0.00 in0.0 mm 0.00 in/hr0.0 mm/hr 0.00 in0.0 mm
02:25 AM 23.4°F-4.8°C 20.1°F-6.6°C 87% 6.9 mph WSW11.1 kmh WSW 17.9 mph28.8 kmh 29.74 in1007.1 mb 0.00 in0.0 mm 0.00 in/hr0.0 mm/hr 0.00 in0.0 mm
02:20 AM 23.7°F-4.6°C 20.7°F-6.3°C 88% 6.9 mph N11.1 kmh N 16.1 mph25.9 kmh 29.75 in1007.5 mb 0.00 in0.0 mm 0.00 in/hr0.0 mm/hr 0.00 in0.0 mm
02:15 AM 24.3°F-4.3°C 21.2°F-6.0°C 88% 8.1 mph NNW13.0 kmh NNW 13.0 mph20.9 kmh 29.74 in1007.1 mb 0.00 in0.0 mm 0.00 in/hr0.0 mm/hr 0.00 in0.0 mm
02:10 AM 24.8°F-4.0°C 21.6°F-5.8°C 87% 6.0 mph N9.7 kmh N 17.0 mph27.4 kmh 29.74 in1007.1 mb 0.00 in0.0 mm 0.00 in/hr0.0 mm/hr 0.00 in0.0 mm
02:05 AM 25.3°F-3.7°C 22.1°F-5.5°C 87% 4.0 mph N6.4 kmh N 16.1 mph25.9 kmh 29.73 in1006.8 mb 0.00 in0.0 mm 0.00 in/hr0.0 mm/hr 0.00 in0.0 mm
02:00 AM 25.3°F-3.7°C 22.1°F-5.5°C 87% 4.0 mph N6.4 kmh N 10.0 mph16.1 kmh 29.72 in1006.4 mb 0.00 in0.0 mm 0.00 in/hr0.0 mm/hr 0.00 in0.0 mm
01:55 AM 25.3°F-3.7°C 22.1°F-5.5°C 87% 4.0 mph W6.4 kmh W 10.1 mph16.3 kmh 29.72 in1006.4 mb 0.00 in0.0 mm 0.00 in/hr0.0 mm/hr 0.00 in0.0 mm
01:50 AM 25.3°F-3.7°C 22.1°F-5.5°C 87% 4.0 mph NW6.4 kmh NW 10.1 mph16.3 kmh 29.72 in1006.4 mb 0.00 in0.0 mm 0.00 in/hr0.0 mm/hr 0.00 in0.0 mm
01:45 AM 25.3°F-3.7°C 22.1°F-5.5°C 87% 4.9 mph WNW7.9 kmh WNW 8.9 mph14.3 kmh 29.71 in1006.1 mb 0.00 in0.0 mm 0.00 in/hr0.0 mm/hr 0.00 in0.0 mm
01:40 AM 25.2°F-3.8°C 21.9°F-5.6°C 87% 6.0 mph WNW9.7 kmh WNW 10.1 mph16.3 kmh 29.71 in1006.1 mb 0.00 in0.0 mm 0.00 in/hr0.0 mm/hr 0.00 in0.0 mm
01:35 AM 25.2°F-3.8°C 21.9°F-5.6°C 87% 4.9 mph W7.9 kmh W 8.1 mph13.0 kmh 29.71 in1006.1 mb 0.00 in0.0 mm 0.00 in/hr0.0 mm/hr 0.00 in0.0 mm
01:30 AM 25.0°F-3.9°C 21.9°F-5.6°C 88% 6.0 mph W9.7 kmh W 11.0 mph17.7 kmh 29.70 in1005.8 mb 0.00 in0.0 mm 0.00 in/hr0.0 mm/hr 0.00 in0.0 mm
01:25 AM 24.6°F-4.1°C 21.6°F-5.8°C 88% 4.9 mph WNW7.9 kmh WNW 12.1 mph19.5 kmh 29.70 in1005.8 mb 0.00 in0.0 mm 0.00 in/hr0.0 mm/hr 0.00 in0.0 mm
01:20 AM 24.4°F-4.2°C 21.4°F-5.9°C 88% 4.9 mph W7.9 kmh W 8.9 mph14.3 kmh 29.69 in1005.4 mb 0.00 in0.0 mm 0.00 in/hr0.0 mm/hr 0.00 in0.0 mm
01:15 AM 24.3°F-4.3°C 21.2°F-6.0°C 88% 4.9 mph W7.9 kmh W 10.1 mph16.3 kmh 29.69 in1005.4 mb 0.00 in0.0 mm 0.00 in/hr0.0 mm/hr 0.00 in0.0 mm
01:10 AM 24.3°F-4.3°C 21.2°F-6.0°C 88% 4.9 mph W7.9 kmh W 8.9 mph14.3 kmh 29.69 in1005.4 mb 0.00 in0.0 mm 0.00 in/hr0.0 mm/hr 0.00 in0.0 mm
01:05 AM 24.3°F-4.3°C 21.2°F-6.0°C 88% 6.0 mph NW9.7 kmh NW 8.9 mph14.3 kmh 29.69 in1005.4 mb 0.00 in0.0 mm 0.00 in/hr0.0 mm/hr 0.00 in0.0 mm
01:00 AM 24.3°F-4.3°C 21.2°F-6.0°C 88% 6.0 mph WNW9.7 kmh WNW 10.1 mph16.3 kmh 29.69 in1005.4 mb 0.00 in0.0 mm 0.00 in/hr0.0 mm/hr 0.00 in0.0 mm
12:55 AM 24.3°F-4.3°C 21.2°F-6.0°C 88% 6.0 mph W9.7 kmh W 8.1 mph13.0 kmh 29.68 in1005.1 mb 0.00 in0.0 mm 0.00 in/hr0.0 mm/hr 0.00 in0.0 mm
12:50 AM 24.4°F-4.2°C 21.4°F-5.9°C 88% 6.9 mph W11.1 kmh W 12.1 mph19.5 kmh 29.69 in1005.4 mb 0.00 in0.0 mm 0.00 in/hr0.0 mm/hr 0.00 in0.0 mm
12:45 AM 24.4°F-4.2°C 21.4°F-5.9°C 88% 6.9 mph WSW11.1 kmh WSW 14.1 mph22.7 kmh 29.68 in1005.1 mb 0.00 in0.0 mm 0.00 in/hr0.0 mm/hr 0.00 in0.0 mm
12:40 AM 24.4°F-4.2°C 21.4°F-5.9°C 88% 6.0 mph WSW9.7 kmh WSW 11.0 mph17.7 kmh 29.68 in1005.1 mb 0.00 in0.0 mm 0.00 in/hr0.0 mm/hr 0.00 in0.0 mm
12:35 AM 24.6°F-4.1°C 21.6°F-5.8°C 88% 6.9 mph W11.1 kmh W 10.1 mph16.3 kmh 29.67 in1004.7 mb 0.00 in0.0 mm 0.00 in/hr0.0 mm/hr 0.00 in0.0 mm
12:30 AM 24.6°F-4.1°C 21.6°F-5.8°C 88% 6.0 mph WSW9.7 kmh WSW 13.0 mph20.9 kmh 29.67 in1004.7 mb 0.00 in0.0 mm 0.00 in/hr0.0 mm/hr 0.00 in0.0 mm
12:25 AM 24.8°F-4.0°C 21.7°F-5.7°C 88% 6.0 mph W9.7 kmh W 11.0 mph17.7 kmh 29.67 in1004.7 mb 0.00 in0.0 mm 0.00 in/hr0.0 mm/hr 0.00 in0.0 mm
12:20 AM 24.8°F-4.0°C 21.7°F-5.7°C 88% 6.0 mph W9.7 kmh W 12.1 mph19.5 kmh 29.67 in1004.7 mb 0.00 in0.0 mm 0.00 in/hr0.0 mm/hr 0.00 in0.0 mm
12:15 AM 24.8°F-4.0°C 21.7°F-5.7°C 88% 6.0 mph WSW9.7 kmh WSW 10.1 mph16.3 kmh 29.67 in1004.7 mb 0.00 in0.0 mm 0.00 in/hr0.0 mm/hr 0.00 in0.0 mm
12:10 AM 24.8°F-4.0°C 21.7°F-5.7°C 88% 6.0 mph W9.7 kmh W 11.0 mph17.7 kmh 29.67 in1004.7 mb 0.00 in0.0 mm 0.00 in/hr0.0 mm/hr 0.00 in0.0 mm
12:05 AM 24.6°F-4.1°C 21.6°F-5.8°C 88% 6.0 mph W9.7 kmh W 8.9 mph14.3 kmh 29.67 in1004.7 mb 0.00 in0.0 mm 0.00 in/hr0.0 mm/hr 0.00 in0.0 mm
12:00 AM 24.6°F-4.1°C 21.6°F-5.8°C 88% 6.0 mph WSW9.7 kmh WSW 12.1 mph19.5 kmh 29.68 in1005.1 mb 0.00 in0.0 mm 0.00 in/hr0.0 mm/hr 0.00 in0.0 mm